sensor_id;sensor_type;location;lat;lon;timestamp;temperature;humidity
40023;DHT22;25713;-35.352;149.036;2024-01-15T00:02:20;19.20;94.70
40023;DHT22;25713;-35.352;149.036;2024-01-15T00:04:49;19.10;94.50
40023;DHT22;25713;-35.352;149.036;2024-01-15T00:07:19;19.10;94.80
40023;DHT22;25713;-35.352;149.036;2024-01-15T00:09:49;19.20;94.50
40023;DHT22;25713;-35.352;149.036;2024-01-15T00:12:20;19.30;94.90
40023;DHT22;25713;-35.352;149.036;2024-01-15T00:14:50;19.30;94.40
40023;DHT22;25713;-35.352;149.036;2024-01-15T00:17:19;19.20;94.50
40023;DHT22;25713;-35.352;149.036;2024-01-15T00:19:49;19.30;94.10
40023;DHT22;25713;-35.352;149.036;2024-01-15T00:22:18;19.30;94.20
40023;DHT22;25713;-35.352;149.036;2024-01-15T00:24:48;19.30;93.90
40023;DHT22;25713;-35.352;149.036;2024-01-15T00:27:20;19.30;94.10
40023;DHT22;25713;-35.352;149.036;2024-01-15T00:29:50;19.30;93.90
40023;DHT22;25713;-35.352;149.036;2024-01-15T00:32:20;19.40;94.30
40023;DHT22;25713;-35.352;149.036;2024-01-15T00:34:50;19.40;94.50
40023;DHT22;25713;-35.352;149.036;2024-01-15T00:37:22;19.40;93.40
40023;DHT22;25713;-35.352;149.036;2024-01-15T00:39:53;19.40;93.50
40023;DHT22;25713;-35.352;149.036;2024-01-15T00:42:30;19.40;93.10
40023;DHT22;25713;-35.352;149.036;2024-01-15T00:45:02;19.40;92.70
40023;DHT22;25713;-35.352;149.036;2024-01-15T00:47:33;19.40;92.80
40023;DHT22;25713;-35.352;149.036;2024-01-15T00:50:06;19.40;93.40
40023;DHT22;25713;-35.352;149.036;2024-01-15T00:52:38;19.40;93.70
40023;DHT22;25713;-35.352;149.036;2024-01-15T00:55:09;19.40;93.80
40023;DHT22;25713;-35.352;149.036;2024-01-15T00:57:41;19.40;93.60
40023;DHT22;25713;-35.352;149.036;2024-01-15T01:00:15;19.40;93.70
40023;DHT22;25713;-35.352;149.036;2024-01-15T01:02:45;19.40;94.20
40023;DHT22;25713;-35.352;149.036;2024-01-15T01:05:16;19.40;93.90
40023;DHT22;25713;-35.352;149.036;2024-01-15T01:07:51;19.40;94.10
40023;DHT22;25713;-35.352;149.036;2024-01-15T01:10:21;19.40;94.40
40023;DHT22;25713;-35.352;149.036;2024-01-15T01:13:02;19.40;94.50
40023;DHT22;25713;-35.352;149.036;2024-01-15T01:15:33;19.50;94.10
40023;DHT22;25713;-35.352;149.036;2024-01-15T01:18:07;19.40;94.40
40023;DHT22;25713;-35.352;149.036;2024-01-15T01:20:38;19.40;94.40
40023;DHT22;25713;-35.352;149.036;2024-01-15T01:23:09;19.50;94.50
40023;DHT22;25713;-35.352;149.036;2024-01-15T01:25:40;19.50;93.60
40023;DHT22;25713;-35.352;149.036;2024-01-15T01:28:14;19.50;93.60
40023;DHT22;25713;-35.352;149.036;2024-01-15T01:30:45;19.60;93.80
40023;DHT22;25713;-35.352;149.036;2024-01-15T01:33:17;19.60;93.60
40023;DHT22;25713;-35.352;149.036;2024-01-15T01:35:47;19.60;93.20
40023;DHT22;25713;-35.352;149.036;2024-01-15T01:38:21;19.60;93.40
40023;DHT22;25713;-35.352;149.036;2024-01-15T01:40:53;19.60;93.50
40023;DHT22;25713;-35.352;149.036;2024-01-15T01:43:30;19.60;93.60
40023;DHT22;25713;-35.352;149.036;2024-01-15T01:46:03;19.70;93.00
40023;DHT22;25713;-35.352;149.036;2024-01-15T01:48:35;19.70;93.70
40023;DHT22;25713;-35.352;149.036;2024-01-15T01:51:05;19.70;93.90
40023;DHT22;25713;-35.352;149.036;2024-01-15T01:53:36;19.70;93.20
40023;DHT22;25713;-35.352;149.036;2024-01-15T01:56:08;19.70;93.30
40023;DHT22;25713;-35.352;149.036;2024-01-15T01:58:45;19.70;93.20
40023;DHT22;25713;-35.352;149.036;2024-01-15T02:01:17;19.70;93.10
40023;DHT22;25713;-35.352;149.036;2024-01-15T02:03:50;19.70;92.90
40023;DHT22;25713;-35.352;149.036;2024-01-15T02:06:24;19.70;93.00
40023;DHT22;25713;-35.352;149.036;2024-01-15T02:08:55;19.70;92.90
40023;DHT22;25713;-35.352;149.036;2024-01-15T02:11:25;19.80;92.60
40023;DHT22;25713;-35.352;149.036;2024-01-15T02:13:59;19.70;92.60
40023;DHT22;25713;-35.352;149.036;2024-01-15T02:16:30;19.80;93.10
40023;DHT22;25713;-35.352;149.036;2024-01-15T02:19:01;19.80;93.60
40023;DHT22;25713;-35.352;149.036;2024-01-15T02:21:34;19.80;93.70
40023;DHT22;25713;-35.352;149.036;2024-01-15T02:24:12;19.80;93.30
40023;DHT22;25713;-35.352;149.036;2024-01-15T02:26:45;19.80;93.70
40023;DHT22;25713;-35.352;149.036;2024-01-15T02:29:17;19.80;93.70
40023;DHT22;25713;-35.352;149.036;2024-01-15T02:31:54;19.80;93.50
40023;DHT22;25713;-35.352;149.036;2024-01-15T02:34:24;19.80;93.30
40023;DHT22;25713;-35.352;149.036;2024-01-15T02:36:58;19.80;93.50
40023;DHT22;25713;-35.352;149.036;2024-01-15T02:39:37;19.80;94.00
40023;DHT22;25713;-35.352;149.036;2024-01-15T02:42:08;19.80;93.90
40023;DHT22;25713;-35.352;149.036;2024-01-15T02:44:40;19.90;93.30
40023;DHT22;25713;-35.352;149.036;2024-01-15T02:47:10;19.90;93.00
40023;DHT22;25713;-35.352;149.036;2024-01-15T02:49:40;19.90;93.80
40023;DHT22;25713;-35.352;149.036;2024-01-15T02:52:13;19.90;93.80
40023;DHT22;25713;-35.352;149.036;2024-01-15T02:54:51;19.90;93.20
40023;DHT22;25713;-35.352;149.036;2024-01-15T02:57:21;19.90;93.00
40023;DHT22;25713;-35.352;149.036;2024-01-15T02:59:53;19.90;93.40
40023;DHT22;25713;-35.352;149.036;2024-01-15T03:02:24;19.90;93.20
40023;DHT22;25713;-35.352;149.036;2024-01-15T03:04:57;19.90;93.40
40023;DHT22;25713;-35.352;149.036;2024-01-15T03:07:28;19.80;93.40
40023;DHT22;25713;-35.352;149.036;2024-01-15T03:10:05;19.80;93.50
40023;DHT22;25713;-35.352;149.036;2024-01-15T03:12:38;19.90;93.70
40023;DHT22;25713;-35.352;149.036;2024-01-15T03:15:09;19.90;93.70
40023;DHT22;25713;-35.352;149.036;2024-01-15T03:17:44;19.80;93.50
40023;DHT22;25713;-35.352;149.036;2024-01-15T03:20:15;19.80;93.40
40023;DHT22;25713;-35.352;149.036;2024-01-15T03:22:45;19.80;93.50
40023;DHT22;25713;-35.352;149.036;2024-01-15T03:25:23;19.80;93.30
40023;DHT22;25713;-35.352;149.036;2024-01-15T03:27:53;19.80;93.50
40023;DHT22;25713;-35.352;149.036;2024-01-15T03:30:24;19.90;93.70
40023;DHT22;25713;-35.352;149.036;2024-01-15T03:32:55;19.90;93.80
40023;DHT22;25713;-35.352;149.036;2024-01-15T03:35:31;19.90;93.50
40023;DHT22;25713;-35.352;149.036;2024-01-15T03:38:06;19.80;93.10
40023;DHT22;25713;-35.352;149.036;2024-01-15T03:40:39;19.80;93.30
40023;DHT22;25713;-35.352;149.036;2024-01-15T03:43:13;19.70;93.10
40023;DHT22;25713;-35.352;149.036;2024-01-15T03:45:48;19.80;92.80
40023;DHT22;25713;-35.352;149.036;2024-01-15T03:48:19;19.70;92.80
40023;DHT22;25713;-35.352;149.036;2024-01-15T03:50:56;19.80;92.80
40023;DHT22;25713;-35.352;149.036;2024-01-15T03:53:27;19.80;92.90
40023;DHT22;25713;-35.352;149.036;2024-01-15T03:56:01;19.80;92.50
40023;DHT22;25713;-35.352;149.036;2024-01-15T03:58:32;19.80;92.40
40023;DHT22;25713;-35.352;149.036;2024-01-15T04:01:07;19.80;92.40
40023;DHT22;25713;-35.352;149.036;2024-01-15T04:03:38;19.80;92.60
40023;DHT22;25713;-35.352;149.036;2024-01-15T04:06:12;19.80;92.80
40023;DHT22;25713;-35.352;149.036;2024-01-15T04:08:42;19.80;92.80
40023;DHT22;25713;-35.352;149.036;2024-01-15T04:11:15;19.80;92.90
40023;DHT22;25713;-35.352;149.036;2024-01-15T04:13:46;19.80;93.00
40023;DHT22;25713;-35.352;149.036;2024-01-15T04:16:16;19.80;93.20
40023;DHT22;25713;-35.352;149.036;2024-01-15T04:18:46;19.80;93.10
40023;DHT22;25713;-35.352;149.036;2024-01-15T04:21:22;19.80;93.20
40023;DHT22;25713;-35.352;149.036;2024-01-15T04:23:57;19.80;93.40
40023;DHT22;25713;-35.352;149.036;2024-01-15T04:26:29;19.80;93.40
40023;DHT22;25713;-35.352;149.036;2024-01-15T04:29:00;19.80;93.20
40023;DHT22;25713;-35.352;149.036;2024-01-15T04:31:31;19.80;93.50
40023;DHT22;25713;-35.352;149.036;2024-01-15T04:34:01;19.80;93.50
40023;DHT22;25713;-35.352;149.036;2024-01-15T04:36:31;19.80;93.80
40023;DHT22;25713;-35.352;149.036;2024-01-15T04:39:02;19.80;93.70
40023;DHT22;25713;-35.352;149.036;2024-01-15T04:41:36;19.80;93.50
40023;DHT22;25713;-35.352;149.036;2024-01-15T04:44:10;19.80;93.50
40023;DHT22;25713;-35.352;149.036;2024-01-15T04:46:40;19.80;93.50
40023;DHT22;25713;-35.352;149.036;2024-01-15T04:49:11;19.80;93.70
40023;DHT22;25713;-35.352;149.036;2024-01-15T04:51:41;19.80;93.70
40023;DHT22;25713;-35.352;149.036;2024-01-15T04:54:11;19.80;93.70
40023;DHT22;25713;-35.352;149.036;2024-01-15T04:56:45;19.80;93.80
40023;DHT22;25713;-35.352;149.036;2024-01-15T04:59:15;19.80;93.80
40023;DHT22;25713;-35.352;149.036;2024-01-15T05:01:46;19.70;93.80
40023;DHT22;25713;-35.352;149.036;2024-01-15T05:04:16;19.80;94.10
40023;DHT22;25713;-35.352;149.036;2024-01-15T05:06:48;19.70;94.10
40023;DHT22;25713;-35.352;149.036;2024-01-15T05:09:18;19.80;94.10
40023;DHT22;25713;-35.352;149.036;2024-01-15T05:11:53;19.80;94.30
40023;DHT22;25713;-35.352;149.036;2024-01-15T05:14:23;19.70;94.30
40023;DHT22;25713;-35.352;149.036;2024-01-15T05:16:53;19.80;94.50
40023;DHT22;25713;-35.352;149.036;2024-01-15T05:19:23;19.70;94.60
40023;DHT22;25713;-35.352;149.036;2024-01-15T05:21:54;19.80;94.60
40023;DHT22;25713;-35.352;149.036;2024-01-15T05:24:24;19.80;94.50
40023;DHT22;25713;-35.352;149.036;2024-01-15T05:26:57;19.70;94.20
40023;DHT22;25713;-35.352;149.036;2024-01-15T05:29:27;19.80;94.10
40023;DHT22;25713;-35.352;149.036;2024-01-15T05:31:57;19.70;94.00
40023;DHT22;25713;-35.352;149.036;2024-01-15T05:34:27;19.70;94.10
40023;DHT22;25713;-35.352;149.036;2024-01-15T05:36:58;19.80;94.30
40023;DHT22;25713;-35.352;149.036;2024-01-15T05:39:28;19.70;94.30
40023;DHT22;25713;-35.352;149.036;2024-01-15T05:42:01;19.70;94.20
40023;DHT22;25713;-35.352;149.036;2024-01-15T05:44:31;19.70;94.00
40023;DHT22;25713;-35.352;149.036;2024-01-15T05:47:01;19.70;94.10
40023;DHT22;25713;-35.352;149.036;2024-01-15T05:49:30;19.70;94.20
40023;DHT22;25713;-35.352;149.036;2024-01-15T05:52:00;19.70;94.10
40023;DHT22;25713;-35.352;149.036;2024-01-15T05:54:30;19.70;94.00
40023;DHT22;25713;-35.352;149.036;2024-01-15T05:57:02;19.70;93.80
40023;DHT22;25713;-35.352;149.036;2024-01-15T05:59:31;19.70;93.60
40023;DHT22;25713;-35.352;149.036;2024-01-15T06:02:00;19.70;93.40
40023;DHT22;25713;-35.352;149.036;2024-01-15T06:04:30;19.70;93.00
40023;DHT22;25713;-35.352;149.036;2024-01-15T06:06:59;19.80;93.30
40023;DHT22;25713;-35.352;149.036;2024-01-15T06:09:29;19.70;93.40
40023;DHT22;25713;-35.352;149.036;2024-01-15T06:12:01;19.70;93.10
40023;DHT22;25713;-35.352;149.036;2024-01-15T06:14:31;19.70;93.00
40023;DHT22;25713;-35.352;149.036;2024-01-15T06:17:01;19.80;93.30
40023;DHT22;25713;-35.352;149.036;2024-01-15T06:19:30;19.70;93.10
40023;DHT22;25713;-35.352;149.036;2024-01-15T06:22:00;19.70;93.00
40023;DHT22;25713;-35.352;149.036;2024-01-15T06:24:29;19.70;93.50
40023;DHT22;25713;-35.352;149.036;2024-01-15T06:27:01;19.70;93.40
40023;DHT22;25713;-35.352;149.036;2024-01-15T06:29:31;19.70;93.20
40023;DHT22;25713;-35.352;149.036;2024-01-15T06:32:01;19.70;93.30
40023;DHT22;25713;-35.352;149.036;2024-01-15T06:34:30;19.70;93.40
40023;DHT22;25713;-35.352;149.036;2024-01-15T06:37:00;19.80;93.40
40023;DHT22;25713;-35.352;149.036;2024-01-15T06:39:29;19.70;93.40
40023;DHT22;25713;-35.352;149.036;2024-01-15T06:42:02;19.70;93.10
40023;DHT22;25713;-35.352;149.036;2024-01-15T06:44:32;19.70;93.50
40023;DHT22;25713;-35.352;149.036;2024-01-15T06:47:01;19.70;93.40
40023;DHT22;25713;-35.352;149.036;2024-01-15T06:49:31;19.70;93.70
40023;DHT22;25713;-35.352;149.036;2024-01-15T06:52:00;19.70;93.70
40023;DHT22;25713;-35.352;149.036;2024-01-15T06:54:30;19.70;93.30
40023;DHT22;25713;-35.352;149.036;2024-01-15T06:57:03;19.60;93.70
40023;DHT22;25713;-35.352;149.036;2024-01-15T06:59:32;19.50;93.50
40023;DHT22;25713;-35.352;149.036;2024-01-15T07:02:02;19.60;93.60
40023;DHT22;25713;-35.352;149.036;2024-01-15T07:04:31;19.60;93.60
40023;DHT22;25713;-35.352;149.036;2024-01-15T07:07:01;19.60;93.60
40023;DHT22;25713;-35.352;149.036;2024-01-15T07:09:30;19.60;93.70
40023;DHT22;25713;-35.352;149.036;2024-01-15T07:12:03;19.70;93.50
40023;DHT22;25713;-35.352;149.036;2024-01-15T07:14:33;19.60;93.90
40023;DHT22;25713;-35.352;149.036;2024-01-15T07:17:03;19.60;93.90
40023;DHT22;25713;-35.352;149.036;2024-01-15T07:19:32;19.60;94.10
40023;DHT22;25713;-35.352;149.036;2024-01-15T07:22:02;19.70;94.00
40023;DHT22;25713;-35.352;149.036;2024-01-15T07:24:31;19.70;93.90
40023;DHT22;25713;-35.352;149.036;2024-01-15T07:27:03;19.60;93.80
40023;DHT22;25713;-35.352;149.036;2024-01-15T07:29:32;19.60;94.00
40023;DHT22;25713;-35.352;149.036;2024-01-15T07:32:02;19.60;93.80
40023;DHT22;25713;-35.352;149.036;2024-01-15T07:34:31;19.70;93.70
40023;DHT22;25713;-35.352;149.036;2024-01-15T07:37:01;19.70;93.80
40023;DHT22;25713;-35.352;149.036;2024-01-15T07:39:31;19.70;94.00
40023;DHT22;25713;-35.352;149.036;2024-01-15T07:42:02;19.60;94.10
40023;DHT22;25713;-35.352;149.036;2024-01-15T07:44:31;19.60;94.20
40023;DHT22;25713;-35.352;149.036;2024-01-15T07:47:01;19.60;94.40
40023;DHT22;25713;-35.352;149.036;2024-01-15T07:49:30;19.60;94.50
40023;DHT22;25713;-35.352;149.036;2024-01-15T07:52:00;19.60;94.60
40023;DHT22;25713;-35.352;149.036;2024-01-15T07:54:30;19.50;94.50
40023;DHT22;25713;-35.352;149.036;2024-01-15T07:57:02;19.50;94.20
40023;DHT22;25713;-35.352;149.036;2024-01-15T07:59:32;19.50;94.20
40023;DHT22;25713;-35.352;149.036;2024-01-15T08:02:02;19.60;94.20
40023;DHT22;25713;-35.352;149.036;2024-01-15T08:04:32;19.50;94.20
40023;DHT22;25713;-35.352;149.036;2024-01-15T08:07:02;19.50;94.30
40023;DHT22;25713;-35.352;149.036;2024-01-15T08:09:31;19.50;94.00
40023;DHT22;25713;-35.352;149.036;2024-01-15T08:12:04;19.50;94.10
40023;DHT22;25713;-35.352;149.036;2024-01-15T08:14:34;19.50;94.00
40023;DHT22;25713;-35.352;149.036;2024-01-15T08:17:04;19.40;93.90
40023;DHT22;25713;-35.352;149.036;2024-01-15T08:19:33;19.50;93.70
40023;DHT22;25713;-35.352;149.036;2024-01-15T08:22:03;19.50;93.90
40023;DHT22;25713;-35.352;149.036;2024-01-15T08:24:32;19.50;93.80
40023;DHT22;25713;-35.352;149.036;2024-01-15T08:27:04;19.50;93.60
40023;DHT22;25713;-35.352;149.036;2024-01-15T08:29:34;19.50;93.70
40023;DHT22;25713;-35.352;149.036;2024-01-15T08:32:03;19.50;93.80
40023;DHT22;25713;-35.352;149.036;2024-01-15T08:34:33;19.50;93.70
40023;DHT22;25713;-35.352;149.036;2024-01-15T08:37:02;19.50;93.80
40023;DHT22;25713;-35.352;149.036;2024-01-15T08:39:32;19.50;93.70
40023;DHT22;25713;-35.352;149.036;2024-01-15T08:42:03;19.50;93.80
40023;DHT22;25713;-35.352;149.036;2024-01-15T08:44:33;19.40;93.80
40023;DHT22;25713;-35.352;149.036;2024-01-15T08:47:02;19.40;93.50
40023;DHT22;25713;-35.352;149.036;2024-01-15T08:49:32;19.40;93.50
40023;DHT22;25713;-35.352;149.036;2024-01-15T08:52:02;19.50;93.70
40023;DHT22;25713;-35.352;149.036;2024-01-15T08:54:31;19.40;93.40
40023;DHT22;25713;-35.352;149.036;2024-01-15T08:57:03;19.40;93.50
40023;DHT22;25713;-35.352;149.036;2024-01-15T08:59:32;19.40;93.20
40023;DHT22;25713;-35.352;149.036;2024-01-15T09:02:02;19.40;93.60
40023;DHT22;25713;-35.352;149.036;2024-01-15T09:04:32;19.40;93.50
40023;DHT22;25713;-35.352;149.036;2024-01-15T09:07:01;19.40;93.40
40023;DHT22;25713;-35.352;149.036;2024-01-15T09:09:31;19.40;93.40
40023;DHT22;25713;-35.352;149.036;2024-01-15T09:12:00;19.40;93.40
40023;DHT22;25713;-35.352;149.036;2024-01-15T09:14:32;19.40;93.40
40023;DHT22;25713;-35.352;149.036;2024-01-15T09:17:02;19.40;93.40
40023;DHT22;25713;-35.352;149.036;2024-01-15T09:19:32;19.50;93.50
40023;DHT22;25713;-35.352;149.036;2024-01-15T09:22:01;19.50;93.60
40023;DHT22;25713;-35.352;149.036;2024-01-15T09:24:31;19.50;93.40
40023;DHT22;25713;-35.352;149.036;2024-01-15T09:27:00;19.50;93.30
40023;DHT22;25713;-35.352;149.036;2024-01-15T09:29:32;19.50;93.40
40023;DHT22;25713;-35.352;149.036;2024-01-15T09:32:01;19.50;93.40
40023;DHT22;25713;-35.352;149.036;2024-01-15T09:34:31;19.40;93.50
40023;DHT22;25713;-35.352;149.036;2024-01-15T09:37:00;19.40;93.40
40023;DHT22;25713;-35.352;149.036;2024-01-15T09:39:30;19.40;93.30
40023;DHT22;25713;-35.352;149.036;2024-01-15T09:42:00;19.50;93.40
40023;DHT22;25713;-35.352;149.036;2024-01-15T09:44:32;19.50;93.40
40023;DHT22;25713;-35.352;149.036;2024-01-15T09:47:02;19.50;93.40
40023;DHT22;25713;-35.352;149.036;2024-01-15T09:49:31;19.50;93.40
40023;DHT22;25713;-35.352;149.036;2024-01-15T09:52:02;19.50;93.40
40023;DHT22;25713;-35.352;149.036;2024-01-15T09:54:32;19.50;93.40
40023;DHT22;25713;-35.352;149.036;2024-01-15T09:57:02;19.50;93.40
40023;DHT22;25713;-35.352;149.036;2024-01-15T09:59:38;19.50;93.30
40023;DHT22;25713;-35.352;149.036;2024-01-15T10:02:08;19.50;93.10
40023;DHT22;25713;-35.352;149.036;2024-01-15T10:04:38;19.50;92.80
40023;DHT22;25713;-35.352;149.036;2024-01-15T10:07:09;19.40;93.20
40023;DHT22;25713;-35.352;149.036;2024-01-15T10:09:42;19.40;93.20
40023;DHT22;25713;-35.352;149.036;2024-01-15T10:12:11;19.40;93.50
40023;DHT22;25713;-35.352;149.036;2024-01-15T10:14:43;19.40;93.60
40023;DHT22;25713;-35.352;149.036;2024-01-15T10:17:15;19.40;93.70
40023;DHT22;25713;-35.352;149.036;2024-01-15T10:19:46;19.40;93.70
40023;DHT22;25713;-35.352;149.036;2024-01-15T10:22:15;19.40;93.90
40023;DHT22;25713;-35.352;149.036;2024-01-15T10:24:45;19.40;93.90
40023;DHT22;25713;-35.352;149.036;2024-01-15T10:27:15;19.40;93.90
40023;DHT22;25713;-35.352;149.036;2024-01-15T10:29:47;19.50;94.00
40023;DHT22;25713;-35.352;149.036;2024-01-15T10:32:16;19.50;94.00
40023;DHT22;25713;-35.352;149.036;2024-01-15T10:34:46;19.50;94.10
40023;DHT22;25713;-35.352;149.036;2024-01-15T10:37:15;19.50;94.10
40023;DHT22;25713;-35.352;149.036;2024-01-15T10:39:46;19.50;94.20
40023;DHT22;25713;-35.352;149.036;2024-01-15T10:42:16;19.50;94.20
40023;DHT22;25713;-35.352;149.036;2024-01-15T10:44:49;19.50;94.20
40023;DHT22;25713;-35.352;149.036;2024-01-15T10:47:19;19.50;94.30
40023;DHT22;25713;-35.352;149.036;2024-01-15T10:49:49;19.50;94.30
40023;DHT22;25713;-35.352;149.036;2024-01-15T10:52:19;19.50;94.30
40023;DHT22;25713;-35.352;149.036;2024-01-15T10:54:49;19.50;94.30
40023;DHT22;25713;-35.352;149.036;2024-01-15T10:57:21;19.50;94.30
40023;DHT22;25713;-35.352;149.036;2024-01-15T10:59:54;19.50;94.30
40023;DHT22;25713;-35.352;149.036;2024-01-15T11:02:24;19.50;94.30
40023;DHT22;25713;-35.352;149.036;2024-01-15T11:04:54;19.50;94.50
40023;DHT22;25713;-35.352;149.036;2024-01-15T11:07:25;19.40;94.40
40023;DHT22;25713;-35.352;149.036;2024-01-15T11:09:54;19.50;94.40
40023;DHT22;25713;-35.352;149.036;2024-01-15T11:12:24;19.40;94.30
40023;DHT22;25713;-35.352;149.036;2024-01-15T11:15:02;19.50;94.30
40023;DHT22;25713;-35.352;149.036;2024-01-15T11:17:58;19.40;94.30
40023;DHT22;25713;-35.352;149.036;2024-01-15T11:20:28;19.50;94.30
40023;DHT22;25713;-35.352;149.036;2024-01-15T11:22:58;19.50;94.30
40023;DHT22;25713;-35.352;149.036;2024-01-15T11:25:35;19.40;94.30
40023;DHT22;25713;-35.352;149.036;2024-01-15T11:28:05;19.40;94.30
40023;DHT22;25713;-35.352;149.036;2024-01-15T11:30:36;19.50;94.30
40023;DHT22;25713;-35.352;149.036;2024-01-15T11:33:06;19.40;94.30
40023;DHT22;25713;-35.352;149.036;2024-01-15T11:35:50;19.40;94.50
40023;DHT22;25713;-35.352;149.036;2024-01-15T11:38:29;19.30;94.80
40023;DHT22;25713;-35.352;149.036;2024-01-15T11:40:59;19.30;94.80
40023;DHT22;25713;-35.352;149.036;2024-01-15T11:43:30;19.30;94.80
40023;DHT22;25713;-35.352;149.036;2024-01-15T11:46:03;19.30;94.90
40023;DHT22;25713;-35.352;149.036;2024-01-15T11:48:42;19.30;94.80
40023;DHT22;25713;-35.352;149.036;2024-01-15T11:51:12;19.30;94.80
40023;DHT22;25713;-35.352;149.036;2024-01-15T11:53:45;19.30;94.80
40023;DHT22;25713;-35.352;149.036;2024-01-15T11:56:17;19.30;94.70
40023;DHT22;25713;-35.352;149.036;2024-01-15T11:58:47;19.30;94.90
40023;DHT22;25713;-35.352;149.036;2024-01-15T12:01:19;19.20;94.90
40023;DHT22;25713;-35.352;149.036;2024-01-15T12:03:49;19.20;94.80
40023;DHT22;25713;-35.352;149.036;2024-01-15T12:06:19;19.20;95.10
40023;DHT22;25713;-35.352;149.036;2024-01-15T12:08:48;19.20;95.10
40023;DHT22;25713;-35.352;149.036;2024-01-15T12:11:20;19.30;95.00
40023;DHT22;25713;-35.352;149.036;2024-01-15T12:13:51;19.20;95.30
40023;DHT22;25713;-35.352;149.036;2024-01-15T12:16:22;19.20;95.20
40023;DHT22;25713;-35.352;149.036;2024-01-15T12:18:52;19.30;95.20
40023;DHT22;25713;-35.352;149.036;2024-01-15T12:21:22;19.30;95.10
40023;DHT22;25713;-35.352;149.036;2024-01-15T12:23:51;19.30;95.30
40023;DHT22;25713;-35.352;149.036;2024-01-15T12:26:21;19.30;95.00
40023;DHT22;25713;-35.352;149.036;2024-01-15T12:28:51;19.30;95.20
40023;DHT22;25713;-35.352;149.036;2024-01-15T12:31:23;19.30;95.50
40023;DHT22;25713;-35.352;149.036;2024-01-15T12:33:52;19.30;95.50
40023;DHT22;25713;-35.352;149.036;2024-01-15T12:36:22;19.30;95.30
40023;DHT22;25713;-35.352;149.036;2024-01-15T12:38:52;19.30;95.00
40023;DHT22;25713;-35.352;149.036;2024-01-15T12:41:21;19.30;95.50
40023;DHT22;25713;-35.352;149.036;2024-01-15T12:43:52;19.30;95.20
40023;DHT22;25713;-35.352;149.036;2024-01-15T12:46:24;19.30;94.90
40023;DHT22;25713;-35.352;149.036;2024-01-15T12:48:54;19.30;95.20
40023;DHT22;25713;-35.352;149.036;2024-01-15T12:51:26;19.30;95.10
40023;DHT22;25713;-35.352;149.036;2024-01-15T12:53:56;19.30;95.30
40023;DHT22;25713;-35.352;149.036;2024-01-15T12:56:25;19.30;95.00
40023;DHT22;25713;-35.352;149.036;2024-01-15T12:58:55;19.30;95.00
40023;DHT22;25713;-35.352;149.036;2024-01-15T13:01:26;19.20;95.10
40023;DHT22;25713;-35.352;149.036;2024-01-15T13:03:56;19.30;95.00
40023;DHT22;25713;-35.352;149.036;2024-01-15T13:06:25;19.20;95.10
40023;DHT22;25713;-35.352;149.036;2024-01-15T13:08:55;19.30;95.40
40023;DHT22;25713;-35.352;149.036;2024-01-15T13:11:25;19.30;95.30
40023;DHT22;25713;-35.352;149.036;2024-01-15T13:13:54;19.30;95.20
40023;DHT22;25713;-35.352;149.036;2024-01-15T13:16:26;19.30;95.40
40023;DHT22;25713;-35.352;149.036;2024-01-15T13:18:55;19.20;95.10
40023;DHT22;25713;-35.352;149.036;2024-01-15T13:21:25;19.30;95.40
40023;DHT22;25713;-35.352;149.036;2024-01-15T13:23:55;19.20;95.20
40023;DHT22;25713;-35.352;149.036;2024-01-15T13:26:24;19.20;95.30
40023;DHT22;25713;-35.352;149.036;2024-01-15T13:28:54;19.20;95.20
40023;DHT22;25713;-35.352;149.036;2024-01-15T13:31:26;19.20;95.10
40023;DHT22;25713;-35.352;149.036;2024-01-15T13:33:55;19.20;95.20
40023;DHT22;25713;-35.352;149.036;2024-01-15T13:36:25;19.20;95.20
40023;DHT22;25713;-35.352;149.036;2024-01-15T13:38:55;19.20;95.20
40023;DHT22;25713;-35.352;149.036;2024-01-15T13:41:24;19.20;95.00
40023;DHT22;25713;-35.352;149.036;2024-01-15T13:43:54;19.10;95.30
40023;DHT22;25713;-35.352;149.036;2024-01-15T13:46:28;19.10;95.50
40023;DHT22;25713;-35.352;149.036;2024-01-15T13:48:58;19.10;95.00
40023;DHT22;25713;-35.352;149.036;2024-01-15T13:51:27;19.10;95.20
40023;DHT22;25713;-35.352;149.036;2024-01-15T13:53:56;19.10;95.20
40023;DHT22;25713;-35.352;149.036;2024-01-15T13:56:26;19.10;95.10
40023;DHT22;25713;-35.352;149.036;2024-01-15T13:58:56;19.10;95.00
40023;DHT22;25713;-35.352;149.036;2024-01-15T14:01:29;19.10;95.10
40023;DHT22;25713;-35.352;149.036;2024-01-15T14:03:58;19.10;95.00
40023;DHT22;25713;-35.352;149.036;2024-01-15T14:06:28;19.10;95.00
40023;DHT22;25713;-35.352;149.036;2024-01-15T14:08:58;19.10;95.00
40023;DHT22;25713;-35.352;149.036;2024-01-15T14:11:27;19.10;95.30
40023;DHT22;25713;-35.352;149.036;2024-01-15T14:13:57;19.10;95.40
40023;DHT22;25713;-35.352;149.036;2024-01-15T14:16:30;19.10;95.00
40023;DHT22;25713;-35.352;149.036;2024-01-15T14:19:00;19.10;95.10
40023;DHT22;25713;-35.352;149.036;2024-01-15T14:21:37;19.10;94.90
40023;DHT22;25713;-35.352;149.036;2024-01-15T14:24:07;19.10;95.60
40023;DHT22;25713;-35.352;149.036;2024-01-15T14:26:36;19.10;95.20
40023;DHT22;25713;-35.352;149.036;2024-01-15T14:29:06;19.10;95.10
40023;DHT22;25713;-35.352;149.036;2024-01-15T14:31:38;19.10;95.10
40023;DHT22;25713;-35.352;149.036;2024-01-15T14:34:07;19.10;95.30
40023;DHT22;25713;-35.352;149.036;2024-01-15T14:36:37;19.10;95.20
40023;DHT22;25713;-35.352;149.036;2024-01-15T14:39:07;19.00;95.20
40023;DHT22;25713;-35.352;149.036;2024-01-15T14:41:36;19.00;95.10
40023;DHT22;25713;-35.352;149.036;2024-01-15T14:44:06;19.00;95.20
40023;DHT22;25713;-35.352;149.036;2024-01-15T15:47:13;18.70;96.40
40023;DHT22;25713;-35.352;149.036;2024-01-15T15:49:43;18.70;95.90
40023;DHT22;25713;-35.352;149.036;2024-01-15T15:52:12;18.70;96.00
40023;DHT22;25713;-35.352;149.036;2024-01-15T15:54:42;18.70;96.50
40023;DHT22;25713;-35.352;149.036;2024-01-15T15:57:12;18.70;96.30
40023;DHT22;25713;-35.352;149.036;2024-01-15T15:59:41;18.70;96.30
40023;DHT22;25713;-35.352;149.036;2024-01-15T16:02:15;18.70;96.20
40023;DHT22;25713;-35.352;149.036;2024-01-15T16:04:45;18.70;95.80
40023;DHT22;25713;-35.352;149.036;2024-01-15T16:07:14;18.80;95.90
40023;DHT22;25713;-35.352;149.036;2024-01-15T16:09:43;18.80;96.10
40023;DHT22;25713;-35.352;149.036;2024-01-15T16:12:13;18.80;96.30